createdAt,value
2023-05-19T00:02:05.500Z,1.63
2023-05-19T00:04:35.420Z,1.80
2023-05-19T00:07:05.586Z,1.55
2023-05-19T00:09:34.751Z,1.48
2023-05-19T00:12:05.282Z,1.73
2023-05-19T00:14:34.200Z,1.67
2023-05-19T00:17:03.080Z,2.08
2023-05-19T00:19:32.410Z,1.13
2023-05-19T00:22:00.775Z,1.98
2023-05-19T00:24:29.527Z,1.60
2023-05-19T00:26:57.680Z,1.70
2023-05-19T00:29:27.188Z,2.10
2023-05-19T00:31:55.449Z,1.95
2023-05-19T00:34:23.661Z,1.70
2023-05-19T00:36:52.018Z,2.30
2023-05-19T00:39:20.364Z,1.63
2023-05-19T00:41:49.089Z,2.08
2023-05-19T00:44:17.272Z,2.10
2023-05-19T00:46:47.038Z,1.65
2023-05-19T00:49:15.405Z,1.42
2023-05-19T00:51:43.889Z,1.90
2023-05-19T00:54:12.339Z,1.50
2023-05-19T00:56:40.855Z,1.55
2023-05-19T00:59:09.510Z,1.83
2023-05-19T01:01:38.163Z,2.10
2023-05-19T01:04:10.541Z,2.10
2023-05-19T01:06:39.076Z,2.00
2023-05-19T01:09:07.525Z,1.90
2023-05-19T01:11:36.242Z,1.70
2023-05-19T01:14:04.515Z,1.70
2023-05-19T01:16:41.819Z,1.80
2023-05-19T01:19:38.633Z,1.52
2023-05-19T01:22:31.207Z,1.45
2023-05-19T01:25:46.872Z,1.80
2023-05-19T01:28:41.175Z,1.55
2023-05-19T01:31:12.949Z,1.80
2023-05-19T01:33:45.101Z,1.50
2023-05-19T01:36:15.371Z,1.88
2023-05-19T01:38:46.559Z,1.58
2023-05-19T01:41:17.297Z,1.58
2023-05-19T01:43:46.881Z,1.42
2023-05-19T01:46:17.248Z,1.63
2023-05-19T01:48:46.724Z,1.77
2023-05-19T01:51:15.149Z,1.35
2023-05-19T01:53:44.630Z,1.80
2023-05-19T01:56:20.112Z,1.65
2023-05-19T01:58:54.085Z,1.02
2023-05-19T02:01:35.645Z,2.03
2023-05-19T02:04:21.469Z,1.90
2023-05-19T02:07:04.553Z,2.72
2023-05-19T02:09:41.911Z,1.48
2023-05-19T02:12:18.225Z,1.50
2023-05-19T02:14:55.913Z,1.35
2023-05-19T02:17:29.404Z,1.50
2023-05-19T02:19:58.225Z,1.38
2023-05-19T02:22:26.797Z,1.70
2023-05-19T02:24:56.531Z,1.42
2023-05-19T02:27:26.258Z,1.70
2023-05-19T02:29:54.691Z,1.90
2023-05-19T02:32:23.013Z,1.98
2023-05-19T02:34:53.300Z,1.75
2023-05-19T02:37:23.813Z,1.73
2023-05-19T02:39:52.179Z,1.70
2023-05-19T02:42:20.398Z,1.65
2023-05-19T02:44:50.289Z,1.40
2023-05-19T02:47:19.317Z,1.35
2023-05-19T02:49:47.632Z,1.63
2023-05-19T02:52:18.388Z,1.60
2023-05-19T02:54:46.723Z,1.80
2023-05-19T02:57:14.972Z,1.77
2023-05-19T02:59:43.310Z,1.38
2023-05-19T03:02:11.738Z,1.85
2023-05-19T03:04:41.561Z,1.25
2023-05-19T03:07:10.998Z,1.73
2023-05-19T03:09:41.093Z,1.40
2023-05-19T03:12:09.533Z,1.40
2023-05-19T03:14:39.116Z,1.27
2023-05-19T03:17:08.676Z,1.83
2023-05-19T03:19:36.997Z,1.60
2023-05-19T03:22:06.320Z,1.50
2023-05-19T03:24:36.279Z,1.48
2023-05-19T03:27:06.781Z,1.40
2023-05-19T03:29:34.988Z,1.50
2023-05-19T03:32:04.064Z,1.40
2023-05-19T03:34:32.616Z,1.55
2023-05-19T03:37:00.927Z,1.45
2023-05-19T03:39:29.197Z,1.77
2023-05-19T03:41:57.417Z,1.70
2023-05-19T03:44:27.020Z,2.28
2023-05-19T03:46:55.436Z,1.60
2023-05-19T03:49:56.045Z,1.40
2023-05-19T03:52:49.354Z,1.67
2023-05-19T03:55:29.831Z,1.97
2023-05-19T03:57:58.335Z,2.17
2023-05-19T04:00:27.948Z,1.63
2023-05-19T04:02:59.282Z,1.57
2023-05-19T04:05:27.657Z,1.70
2023-05-19T04:07:55.889Z,2.20
2023-05-19T04:10:24.973Z,1.87
2023-05-19T04:12:55.795Z,1.77
2023-05-19T04:15:24.031Z,1.30
2023-05-19T04:17:53.628Z,1.52
2023-05-19T04:20:22.096Z,1.52
2023-05-19T04:22:52.195Z,1.80
2023-05-19T04:25:21.041Z,1.88
2023-05-19T04:27:49.992Z,1.87
2023-05-19T04:30:22.482Z,1.80
2023-05-19T04:32:53.310Z,1.80
2023-05-19T04:35:22.494Z,1.80
2023-05-19T04:37:54.277Z,1.77
2023-05-19T04:40:26.852Z,1.60
2023-05-19T04:42:55.076Z,2.10
2023-05-19T04:45:25.789Z,1.47
2023-05-19T04:47:58.563Z,1.93
2023-05-19T04:50:28.618Z,2.00
2023-05-19T04:52:59.186Z,1.57
2023-05-19T04:55:28.131Z,1.77
2023-05-19T04:57:56.385Z,1.67
2023-05-19T05:00:25.388Z,1.50
2023-05-19T05:03:05.138Z,1.67
2023-05-19T05:05:34.095Z,1.73
2023-05-19T05:08:03.256Z,1.73
2023-05-19T05:10:36.597Z,1.73
2023-05-19T05:13:05.666Z,2.57
2023-05-19T05:15:35.542Z,2.30
2023-05-19T05:18:07.070Z,1.73
2023-05-19T05:20:37.055Z,2.97
2023-05-19T05:23:06.766Z,2.20
2023-05-19T05:25:36.340Z,2.22
2023-05-19T05:28:05.924Z,1.92
2023-05-19T05:30:36.723Z,1.75
2023-05-19T05:33:07.878Z,2.00
2023-05-19T05:35:39.575Z,1.90
2023-05-19T05:38:11.391Z,1.90
2023-05-19T05:40:39.797Z,1.73
2023-05-19T05:43:09.147Z,1.95
2023-05-19T05:45:43.229Z,1.60
2023-05-19T05:48:14.454Z,1.65
2023-05-19T05:50:45.302Z,2.20
2023-05-19T05:53:20.210Z,1.85
2023-05-19T05:55:51.632Z,2.20
2023-05-19T05:58:21.252Z,1.88
2023-05-19T06:00:51.457Z,2.55
2023-05-19T06:03:24.583Z,1.95
2023-05-19T06:05:53.741Z,2.40
2023-05-19T06:08:22.113Z,2.20
2023-05-19T06:10:50.412Z,2.70
2023-05-19T06:13:22.578Z,2.08
2023-05-19T06:15:51.026Z,2.00
2023-05-19T06:18:26.917Z,1.88
2023-05-19T06:20:55.337Z,2.58
2023-05-19T06:23:23.901Z,2.40
2023-05-19T06:25:52.458Z,2.35
2023-05-19T06:28:20.968Z,2.20
2023-05-19T06:30:50.694Z,2.28
2023-05-19T06:33:28.968Z,2.00
2023-05-19T06:35:58.009Z,2.50
2023-05-19T06:38:26.570Z,2.72
2023-05-19T06:40:54.738Z,2.10
2023-05-19T06:43:22.934Z,2.60
2023-05-19T06:45:59.305Z,2.58
2023-05-19T06:48:29.323Z,2.60
2023-05-19T06:50:57.721Z,2.33
2023-05-19T06:53:26.438Z,2.53
2023-05-19T06:56:00.042Z,2.00
2023-05-19T06:58:33.079Z,2.42
2023-05-19T07:01:03.690Z,2.53
2023-05-19T07:03:38.604Z,2.20
2023-05-19T07:06:08.374Z,2.92
2023-05-19T07:08:38.158Z,1.92
2023-05-19T07:11:08.638Z,2.25
2023-05-19T07:13:36.881Z,2.10
2023-05-19T07:16:06.332Z,2.78
2023-05-19T07:18:35.326Z,2.58
2023-05-19T07:21:05.572Z,2.28
2023-05-19T07:23:33.900Z,2.55
2023-05-19T07:26:03.386Z,2.63
2023-05-19T07:28:31.669Z,2.05
2023-05-19T07:30:59.853Z,2.35
2023-05-19T07:33:28.142Z,2.33
2023-05-19T07:35:56.390Z,2.30
2023-05-19T07:38:25.893Z,2.75
2023-05-19T07:40:54.123Z,2.38
2023-05-19T07:43:22.300Z,2.20
2023-05-19T07:45:50.559Z,2.20
2023-05-19T07:48:19.193Z,2.05
2023-05-19T07:50:47.706Z,2.30
2023-05-19T07:53:16.675Z,2.08
2023-05-19T07:55:46.402Z,2.17
2023-05-19T07:58:14.637Z,2.22
2023-05-19T08:00:43.651Z,2.30
2023-05-19T08:03:11.969Z,2.05
2023-05-19T08:05:40.554Z,1.83
2023-05-19T08:08:08.798Z,2.58
2023-05-19T08:10:37.065Z,2.17
2023-05-19T08:13:06.610Z,2.17
2023-05-19T08:15:34.883Z,2.22
2023-05-19T08:18:05.805Z,1.95
2023-05-19T08:20:34.303Z,2.03
2023-05-19T08:23:02.718Z,2.67
2023-05-19T08:25:31.244Z,2.00
2023-05-19T08:27:59.487Z,1.55
2023-05-19T08:30:29.073Z,1.48
2023-05-19T08:32:57.290Z,2.40
2023-05-19T08:35:25.912Z,2.33
2023-05-19T08:37:54.314Z,1.90
2023-05-19T08:40:23.999Z,1.55
2023-05-19T08:42:52.434Z,1.67
2023-05-19T08:45:20.932Z,1.40
2023-05-19T08:50:27.531Z,2.00
2023-05-19T08:53:04.880Z,1.83
2023-05-19T08:55:42.165Z,1.60
2023-05-19T08:58:12.158Z,3.08
2023-05-19T09:00:40.922Z,2.47
2023-05-19T09:03:22.829Z,1.35
2023-05-19T09:05:52.622Z,1.88
2023-05-19T09:08:20.909Z,1.67
2023-05-19T09:10:49.222Z,3.58
2023-05-19T09:13:17.415Z,1.48
2023-05-19T09:15:47.011Z,1.63
2023-05-19T09:18:16.658Z,1.88
2023-05-19T09:20:47.043Z,1.73
2023-05-19T09:23:16.920Z,1.88
2023-05-19T09:25:49.568Z,2.03
2023-05-19T09:28:26.286Z,1.50
2023-05-19T09:31:02.022Z,2.00
2023-05-19T09:33:34.560Z,1.73
2023-05-19T09:36:03.519Z,1.88
2023-05-19T09:38:31.791Z,1.50
2023-05-19T09:41:02.428Z,1.70
2023-05-19T09:43:31.720Z,1.75
2023-05-19T09:46:02.275Z,1.63
2023-05-19T09:48:31.963Z,1.63
2023-05-19T09:51:02.393Z,1.55
2023-05-19T09:53:32.470Z,1.85
2023-05-19T09:56:03.474Z,1.60
2023-05-19T09:58:35.084Z,1.75
2023-05-19T10:01:04.945Z,2.40
2023-05-19T10:03:35.656Z,1.80
2023-05-19T10:06:07.397Z,1.80
2023-05-19T10:08:35.921Z,1.77
2023-05-19T10:11:06.478Z,2.25
2023-05-19T10:13:38.508Z,1.50
2023-05-19T10:16:09.447Z,2.00
2023-05-19T10:18:40.521Z,3.08
2023-05-19T10:21:10.418Z,1.42
2023-05-19T10:23:39.679Z,1.60
2023-05-19T10:26:09.420Z,1.40
2023-05-19T10:28:41.996Z,1.60
2023-05-19T10:31:17.996Z,1.58
2023-05-19T10:34:15.191Z,4.50
2023-05-19T10:36:51.110Z,1.50
2023-05-19T10:39:27.809Z,1.80
2023-05-19T10:42:11.027Z,2.00
2023-05-19T10:44:59.585Z,1.77
2023-05-19T10:47:28.654Z,1.60
2023-05-19T10:50:01.817Z,1.65
2023-05-19T10:52:32.892Z,1.90
2023-05-19T10:55:02.755Z,1.45
2023-05-19T10:57:33.000Z,1.67
2023-05-19T11:00:11.282Z,1.75
2023-05-19T11:02:42.369Z,1.63
2023-05-19T11:05:16.304Z,1.33
2023-05-19T11:07:50.975Z,1.70
2023-05-19T11:10:24.839Z,1.67
2023-05-19T11:12:53.598Z,1.60
2023-05-19T11:15:27.608Z,2.08
2023-05-19T11:17:56.824Z,1.48
2023-05-19T11:20:29.753Z,2.10
2023-05-19T11:23:08.628Z,1.13
2023-05-19T11:25:45.024Z,1.95
2023-05-19T11:28:14.232Z,1.60
2023-05-19T11:30:45.443Z,1.40
2023-05-19T11:33:14.750Z,1.70
2023-05-19T11:35:47.171Z,2.00
2023-05-19T11:38:16.223Z,1.80
2023-05-19T11:40:45.361Z,1.70
2023-05-19T11:43:13.547Z,1.95
2023-05-19T11:45:41.914Z,1.63
2023-05-19T11:48:13.259Z,1.63
2023-05-19T11:50:44.975Z,1.38
2023-05-19T11:53:16.344Z,2.15
2023-05-19T11:55:47.364Z,2.00
2023-05-19T11:58:16.283Z,1.60
2023-05-19T12:00:47.892Z,1.65
2023-05-19T12:03:17.401Z,1.60
2023-05-19T12:05:50.246Z,1.40
2023-05-19T12:08:19.397Z,1.48
2023-05-19T12:10:50.861Z,1.15
2023-05-19T12:13:20.026Z,1.70
2023-05-19T12:15:48.287Z,1.80
2023-05-19T12:18:16.536Z,1.50
2023-05-19T12:20:46.388Z,1.77
2023-05-19T12:23:15.795Z,1.85
2023-05-19T12:25:44.149Z,1.60
2023-05-19T12:28:12.352Z,1.92
2023-05-19T12:30:41.433Z,1.52
2023-05-19T12:33:10.124Z,1.25
2023-05-19T12:35:39.063Z,1.70
2023-05-19T12:38:09.324Z,1.60
2023-05-19T12:40:42.142Z,2.10
2023-05-19T12:43:20.231Z,1.30
2023-05-19T12:45:48.727Z,1.67
2023-05-19T12:48:17.242Z,1.88
2023-05-19T12:50:46.217Z,1.80
2023-05-19T12:53:16.407Z,1.75
2023-05-19T12:55:46.756Z,1.45
2023-05-19T12:58:17.076Z,1.50
2023-05-19T13:00:48.452Z,1.58
2023-05-19T13:03:18.883Z,1.50
2023-05-19T13:05:49.732Z,1.42
2023-05-19T13:08:21.459Z,1.52
2023-05-19T13:10:50.084Z,1.80
2023-05-19T13:13:19.273Z,2.05
2023-05-19T13:15:49.398Z,1.65
2023-05-19T13:18:18.652Z,1.52
2023-05-19T13:20:49.951Z,1.70
2023-05-19T13:23:19.728Z,1.80
2023-05-19T13:25:48.063Z,2.08
2023-05-19T13:28:16.377Z,1.77
2023-05-19T13:30:45.376Z,1.40
2023-05-19T13:33:13.801Z,1.85
2023-05-19T13:35:42.133Z,1.77
2023-05-19T13:38:11.212Z,1.95
2023-05-19T13:40:41.492Z,1.58
2023-05-19T13:43:10.109Z,1.60
2023-05-19T13:45:38.725Z,1.42
2023-05-19T13:48:08.385Z,1.75
2023-05-19T13:50:36.726Z,1.58
2023-05-19T13:53:05.133Z,1.63
2023-05-19T13:55:33.883Z,1.77
2023-05-19T13:58:04.380Z,1.20
2023-05-19T14:00:33.445Z,1.55
2023-05-19T14:03:02.252Z,1.67
2023-05-19T14:05:31.278Z,1.60
2023-05-19T14:08:00.985Z,1.42
2023-05-19T14:10:29.348Z,1.73
2023-05-19T14:15:38.448Z,1.55
2023-05-19T14:18:07.372Z,1.77
2023-05-19T14:20:36.459Z,1.90
2023-05-19T14:23:04.984Z,1.92
2023-05-19T14:25:34.679Z,1.48
2023-05-19T14:28:03.116Z,1.67
2023-05-19T14:30:31.540Z,1.42
2023-05-19T14:33:01.409Z,1.50
2023-05-19T14:35:29.749Z,1.50
2023-05-19T14:37:58.055Z,1.60
2023-05-19T14:40:26.296Z,1.52
2023-05-19T14:42:54.597Z,1.50
2023-05-19T14:45:22.804Z,1.30
2023-05-19T14:47:51.105Z,1.13
2023-05-19T14:50:20.892Z,1.20
2023-05-19T14:52:49.109Z,1.50
2023-05-19T14:55:17.584Z,1.60
2023-05-19T14:57:45.971Z,1.63
2023-05-19T15:00:15.848Z,1.55
2023-05-19T15:02:44.362Z,1.50
2023-05-19T15:05:12.759Z,1.38
2023-05-19T15:07:42.403Z,1.30
2023-05-19T15:10:11.233Z,1.52
2023-05-19T15:12:39.674Z,1.60
2023-05-19T15:15:09.696Z,1.80
2023-05-19T15:17:37.988Z,1.80
2023-05-19T15:20:07.933Z,1.40
2023-05-19T15:22:36.406Z,1.58
2023-05-19T15:25:07.141Z,2.53
2023-05-19T15:27:36.472Z,2.17
2023-05-19T15:30:05.209Z,1.63
2023-05-19T15:32:33.728Z,1.23
2023-05-19T15:35:01.947Z,1.73
2023-05-19T15:37:30.149Z,1.50
2023-05-19T15:39:58.462Z,1.48
2023-05-19T15:42:28.220Z,1.35
2023-05-19T15:44:56.440Z,2.03
2023-05-19T15:47:24.759Z,1.85
2023-05-19T15:49:53.070Z,1.63
2023-05-19T15:52:21.383Z,1.60
2023-05-19T15:54:49.685Z,1.40
2023-05-19T15:57:18.044Z,1.30
2023-05-19T15:59:47.640Z,1.65
2023-05-19T16:02:16.388Z,1.40
2023-05-19T16:04:44.789Z,1.45
2023-05-19T16:07:12.982Z,1.88
2023-05-19T16:09:41.345Z,1.40
2023-05-19T16:12:09.608Z,1.30
2023-05-19T16:14:37.829Z,1.45
2023-05-19T16:17:11.388Z,1.40
2023-05-19T16:19:39.665Z,1.92
2023-05-19T16:22:07.951Z,1.40
2023-05-19T16:24:36.214Z,2.13
2023-05-19T16:27:04.971Z,1.60
2023-05-19T16:29:33.265Z,1.75
2023-05-19T16:32:01.757Z,1.40
2023-05-19T16:34:31.445Z,1.30
2023-05-19T16:36:59.683Z,1.42
2023-05-19T16:39:27.901Z,1.20
2023-05-19T16:41:56.153Z,1.30
2023-05-19T16:44:24.573Z,1.23
2023-05-19T16:46:52.805Z,1.48
2023-05-19T16:49:21.176Z,1.52
2023-05-19T16:51:52.715Z,1.38
2023-05-19T16:54:21.889Z,1.70
2023-05-19T16:56:51.457Z,1.40
2023-05-19T16:59:19.677Z,1.20
2023-05-19T17:01:48.032Z,1.38
2023-05-19T17:04:16.347Z,1.13
2023-05-19T17:06:46.091Z,1.70
2023-05-19T17:09:15.689Z,1.88
2023-05-19T17:11:43.948Z,2.03
2023-05-19T17:14:12.638Z,1.30
2023-05-19T17:16:40.838Z,1.35
2023-05-19T17:19:09.067Z,0.90
2023-05-19T17:21:37.444Z,1.60
2023-05-19T17:24:06.484Z,1.90
2023-05-19T17:26:36.011Z,1.63
2023-05-19T17:29:04.274Z,1.52
2023-05-19T17:31:32.514Z,1.60
2023-05-19T17:34:00.735Z,1.67
2023-05-19T17:36:29.074Z,1.13
2023-05-19T17:38:57.284Z,1.48
2023-05-19T17:41:25.524Z,1.52
2023-05-19T17:43:55.104Z,1.90
2023-05-19T17:46:23.311Z,1.90
2023-05-19T17:48:51.545Z,1.73
2023-05-19T17:51:21.099Z,1.73
2023-05-19T17:53:50.127Z,1.77
2023-05-19T17:56:19.834Z,1.50
2023-05-19T17:58:49.358Z,1.67
2023-05-19T18:01:20.527Z,1.77
2023-05-19T18:03:50.076Z,1.70
2023-05-19T18:06:19.725Z,2.30
2023-05-19T18:08:50.730Z,2.00
2023-05-19T18:11:19.449Z,1.73
2023-05-19T18:13:47.645Z,1.88
2023-05-19T18:16:15.957Z,2.08
2023-05-19T18:18:50.187Z,1.50
2023-05-19T18:21:18.896Z,1.67
2023-05-19T18:23:48.192Z,2.10
2023-05-19T18:26:16.584Z,1.67
2023-05-19T18:28:44.828Z,1.60
2023-05-19T18:31:19.076Z,1.83
2023-05-19T18:33:49.307Z,1.70
2023-05-19T18:36:17.623Z,1.60
2023-05-19T18:38:47.386Z,1.85
2023-05-19T18:41:15.703Z,1.88
2023-05-19T18:43:44.250Z,1.45
2023-05-19T18:46:13.735Z,1.67
2023-05-19T18:48:42.451Z,1.73
2023-05-19T18:51:14.223Z,1.50
2023-05-19T18:53:42.656Z,1.50
2023-05-19T18:56:12.715Z,1.70
2023-05-19T18:58:41.042Z,2.10
2023-05-19T19:01:09.369Z,1.55
2023-05-19T19:03:37.689Z,1.90
2023-05-19T19:06:06.055Z,1.88
2023-05-19T19:08:35.651Z,1.95
2023-05-19T19:11:05.120Z,1.65
2023-05-19T19:13:33.427Z,1.50
2023-05-19T19:16:01.694Z,1.95
2023-05-19T19:18:30.230Z,1.90
2023-05-19T19:20:59.631Z,1.88
2023-05-19T19:23:27.899Z,1.70
2023-05-19T19:25:57.517Z,1.40
2023-05-19T19:28:25.781Z,1.60
2023-05-19T19:30:54.247Z,1.67
2023-05-19T19:33:22.607Z,1.80
2023-05-19T19:35:51.042Z,1.67
2023-05-19T19:38:19.379Z,1.42
2023-05-19T19:40:47.640Z,1.70
2023-05-19T19:43:17.352Z,1.85
2023-05-19T19:45:45.847Z,1.63
2023-05-19T19:48:14.168Z,1.73
2023-05-19T19:50:42.369Z,1.42
2023-05-19T19:53:10.881Z,2.10
2023-05-19T19:55:39.331Z,2.10
2023-05-19T19:58:07.743Z,1.80
2023-05-19T20:00:37.393Z,2.10
2023-05-19T20:03:06.082Z,1.80
2023-05-19T20:05:34.613Z,1.88
2023-05-19T20:08:02.787Z,2.40
2023-05-19T20:10:31.036Z,2.00
2023-05-19T20:12:59.756Z,2.03
2023-05-19T20:15:28.096Z,1.88
2023-05-19T20:17:57.803Z,2.30
2023-05-19T20:20:26.134Z,2.20
2023-05-19T20:22:54.466Z,2.33
2023-05-19T20:25:22.728Z,2.20
2023-05-19T20:27:50.958Z,2.20
2023-05-19T20:30:19.732Z,2.25
2023-05-19T20:32:48.167Z,2.15
2023-05-19T20:35:18.016Z,2.10
2023-05-19T20:37:47.926Z,2.13
2023-05-19T20:40:16.454Z,2.35
2023-05-19T20:42:44.714Z,2.28
2023-05-19T20:45:13.185Z,2.33
2023-05-19T20:47:41.525Z,2.15
2023-05-19T20:50:10.225Z,2.05
2023-05-19T20:52:40.007Z,2.40
2023-05-19T20:55:09.168Z,2.53
2023-05-19T20:57:37.564Z,2.20
2023-05-19T21:00:07.495Z,2.78
2023-05-19T21:02:36.062Z,2.20
2023-05-19T21:05:05.354Z,2.42
2023-05-19T21:07:33.895Z,2.33
2023-05-19T21:10:03.643Z,2.20
2023-05-19T21:12:34.261Z,2.28
2023-05-19T21:15:03.733Z,2.72
2023-05-19T21:17:32.165Z,2.20
2023-05-19T21:20:01.118Z,2.10
2023-05-19T21:22:29.680Z,2.22
2023-05-19T21:24:58.274Z,2.78
2023-05-19T21:27:27.973Z,2.25
2023-05-19T21:29:56.596Z,2.75
2023-05-19T21:32:24.951Z,2.40
2023-05-19T21:34:53.281Z,2.53
2023-05-19T21:37:21.659Z,2.38
2023-05-19T21:39:50.105Z,2.33
2023-05-19T21:42:18.611Z,2.38
2023-05-19T21:44:48.234Z,2.30
2023-05-19T21:47:17.090Z,2.65
2023-05-19T21:49:45.464Z,2.67
2023-05-19T21:52:13.777Z,2.15
2023-05-19T21:54:41.990Z,2.83
2023-05-19T21:57:11.155Z,2.67
2023-05-19T21:59:39.777Z,2.42
2023-05-19T22:02:09.996Z,2.70
2023-05-19T22:04:38.583Z,2.30
2023-05-19T22:07:07.816Z,2.42
2023-05-19T22:09:36.099Z,2.47
2023-05-19T22:12:04.525Z,2.75
2023-05-19T22:14:32.771Z,3.00
2023-05-19T22:17:01.018Z,2.67
2023-05-19T22:19:30.738Z,2.53
2023-05-19T22:22:09.661Z,2.95
2023-05-19T22:24:42.415Z,2.50
2023-05-19T22:27:11.580Z,3.20
2023-05-19T22:29:39.853Z,2.80
2023-05-19T22:32:11.971Z,2.78
2023-05-19T22:34:41.810Z,2.67
2023-05-19T22:37:10.113Z,2.80
2023-05-19T22:39:39.189Z,2.72
2023-05-19T22:42:07.643Z,3.10
2023-05-19T22:44:35.878Z,2.53
2023-05-19T22:47:04.116Z,2.83
2023-05-19T22:49:32.292Z,3.42
2023-05-19T22:52:02.303Z,2.92
2023-05-19T22:54:30.883Z,3.00
2023-05-19T22:56:59.145Z,2.70
2023-05-19T22:59:27.402Z,2.88
2023-05-19T23:01:55.942Z,2.72
2023-05-19T23:04:24.214Z,3.08
2023-05-19T23:06:52.710Z,2.50
2023-05-19T23:09:22.322Z,2.63
2023-05-19T23:11:50.501Z,2.80
2023-05-19T23:14:18.915Z,2.60
2023-05-19T23:16:47.321Z,2.67
2023-05-19T23:19:16.998Z,3.35
2023-05-19T23:21:45.891Z,2.60
2023-05-19T23:24:14.192Z,2.70
2023-05-19T23:26:44.197Z,3.40
2023-05-19T23:29:13.687Z,2.92
2023-05-19T23:31:42.706Z,3.10
2023-05-19T23:34:11.381Z,3.65
2023-05-19T23:36:39.591Z,3.30
2023-05-19T23:39:07.857Z,3.45
2023-05-19T23:41:36.614Z,2.90
2023-05-19T23:44:06.600Z,3.17
2023-05-19T23:46:34.842Z,2.83
2023-05-19T23:49:03.176Z,2.67
2023-05-19T23:51:31.635Z,3.15
2023-05-19T23:54:00.140Z,3.53
2023-05-19T23:56:28.422Z,2.88
2023-05-19T23:58:56.624Z,3.40
